Aérodrome :
LOGIN :

S'inscrire | Disclaimer

   EN    FR    IT 

 










Légende :    VFR   VFR Marginal   IFR   IFR Intensif   IFR Très Intensif
Visi : 
Plafond : 
>= 8 km
>= 3000ft
5 à 8 km
1000 à 3000 ft
1500m à 5 km
500 à 1000 ft
800 à 1500m
200 à 500 ft
< 800m
< 200 ft
Symboles :   Orages  Brouillard  Fortes neiges  Fortes précipitations  Vent > 20 kt
SIGMETs :   Divers  Orages  Givrage  Turbulence  Onde Orograph.  Cendres Volcan.






- Altitude de l'aérodrome : 2077 ft
- Code IATA : FMM


EDJA - Memmingen

DERNIER METAR :
  • 031020Z 22009KT 190V270 CAVOK 22/07 Q1008

METARs EXPIRÉS :
  • 030950Z 25006KT CAVOK 21/08 Q1008
  • 030920Z 28005KT 240V310 CAVOK 22/09 Q1009
  • 030850Z 23006KT 190V270 CAVOK 21/09 Q1009
  • 030820Z 21007KT CAVOK 20/09 Q1009
  • 030750Z 22007KT 190V250 CAVOK 19/09 Q1009

TAF COR TAF EDJA
Valide du 03 à 09h jusqu'au 03 à 18h UTC


030842Z 0309/0318 24007KT 9999 FEW050
PROB30
TEMPO 0309/0317 31020G40KT TSRA BKN050CB



MET'MAP, la Météo Aéronautique d'un coup d'oeil ! - Copyright ORBIFLY Décembre 2007 - Disclaimer

ORBIFLY MET'MAP TEAM :

Programmation & Développement : Alexandra Zaïnal
Sur une idée originale de : Baudouin d'Aumeries
Assistance à la programmation : Marc-Olivier Méhu
Soutien technique & logistique : Manuel Goepfert

Contact : metmap@orbifly.com




SOURCES & CREDITS :

   NOAA